createdAt,value
2023-03-08T00:00:41.134Z,6.40
2023-03-08T00:03:07.881Z,6.41
2023-03-08T00:05:34.615Z,6.53
2023-03-08T00:08:01.365Z,6.45
2023-03-08T00:10:28.104Z,6.64
2023-03-08T00:12:54.684Z,6.08
2023-03-08T00:15:21.237Z,4.80
2023-03-08T00:17:47.723Z,5.14
2023-03-08T00:20:14.254Z,4.90
2023-03-08T00:22:41.893Z,4.99
2023-03-08T00:25:09.742Z,4.73
2023-03-08T00:27:36.681Z,5.69
2023-03-08T00:30:06.351Z,6.62
2023-03-08T00:32:33.580Z,7.11
2023-03-08T00:35:00.283Z,6.31
2023-03-08T00:37:26.850Z,6.58
2023-03-08T00:39:53.950Z,6.78
2023-03-08T00:42:21.535Z,6.26
2023-03-08T00:44:48.462Z,6.16
2023-03-08T00:47:15.242Z,6.85
2023-03-08T00:49:41.848Z,6.69
2023-03-08T00:52:08.675Z,7.06
2023-03-08T00:54:35.250Z,5.81
2023-03-08T00:57:01.721Z,6.34
2023-03-08T00:59:28.475Z,6.73
2023-03-08T01:01:55.140Z,6.58
2023-03-08T01:04:23.111Z,5.63
2023-03-08T01:06:49.670Z,6.07
2023-03-08T01:09:16.240Z,6.50
2023-03-08T01:11:44.226Z,6.63
2023-03-08T01:14:10.839Z,6.29
2023-03-08T01:16:37.382Z,5.83
2023-03-08T01:19:04.562Z,5.97
2023-03-08T01:21:31.963Z,5.46
2023-03-08T01:23:59.385Z,6.32
2023-03-08T01:26:26.734Z,5.71
2023-03-08T01:28:53.385Z,6.32
2023-03-08T01:31:25.316Z,6.83
2023-03-08T01:33:52.832Z,6.43
2023-03-08T01:36:21.009Z,6.36
2023-03-08T01:38:48.411Z,6.55
2023-03-08T01:41:19.694Z,6.24
2023-03-08T01:43:46.321Z,6.41
2023-03-08T01:46:32.203Z,6.54
2023-03-08T01:48:59.212Z,6.32
2023-03-08T01:51:34.310Z,6.05
2023-03-08T01:54:02.256Z,6.15
2023-03-08T01:56:29.266Z,6.13
2023-03-08T01:58:57.162Z,6.02
2023-03-08T02:01:24.279Z,6.03
2023-03-08T02:03:51.411Z,6.20
2023-03-08T02:06:19.259Z,6.25
2023-03-08T02:08:46.396Z,6.04
2023-03-08T02:11:14.154Z,6.00
2023-03-08T02:13:42.149Z,5.79
2023-03-08T02:16:12.391Z,5.63
2023-03-08T02:18:49.246Z,5.87
2023-03-08T02:21:15.890Z,5.28
2023-03-08T02:23:42.276Z,5.42
2023-03-08T02:26:09.272Z,5.42
2023-03-08T02:28:35.879Z,5.71
2023-03-08T02:31:02.771Z,5.60
2023-03-08T02:33:31.163Z,5.73
2023-03-08T02:35:59.053Z,5.66
2023-03-08T02:38:25.818Z,5.47
2023-03-08T02:40:53.350Z,5.70
2023-03-08T02:43:20.619Z,5.79
2023-03-08T02:45:47.383Z,5.66
2023-03-08T02:48:14.381Z,5.66
2023-03-08T02:50:40.920Z,5.59
2023-03-08T02:53:07.810Z,5.55
2023-03-08T02:55:36.334Z,5.54
2023-03-08T02:58:06.757Z,5.59
2023-03-08T03:00:33.751Z,5.31
2023-03-08T03:03:00.463Z,5.18
2023-03-08T03:05:27.234Z,5.56
2023-03-08T03:07:55.383Z,5.79
2023-03-08T03:10:22.317Z,5.52
2023-03-08T03:12:48.961Z,5.69
2023-03-08T03:15:15.912Z,5.35
2023-03-08T03:17:42.709Z,5.88
2023-03-08T03:20:09.773Z,4.80
2023-03-08T03:22:36.802Z,4.69
2023-03-08T03:25:04.370Z,5.56
2023-03-08T03:27:31.180Z,6.06
2023-03-08T03:29:57.879Z,5.93
2023-03-08T03:32:24.760Z,5.03
2023-03-08T03:34:51.422Z,5.45
2023-03-08T03:37:18.586Z,5.44
2023-03-08T03:39:45.641Z,5.48
2023-03-08T03:42:12.406Z,6.14
2023-03-08T03:44:39.291Z,5.71
2023-03-08T03:47:06.511Z,5.80
2023-03-08T03:49:34.404Z,5.55
2023-03-08T03:52:01.502Z,6.46
2023-03-08T03:54:28.509Z,6.79
2023-03-08T03:56:58.426Z,6.76
2023-03-08T03:59:26.733Z,6.69
2023-03-08T04:01:55.232Z,7.20
2023-03-08T04:04:22.063Z,6.90
2023-03-08T04:06:48.931Z,6.84
2023-03-08T04:09:17.326Z,6.85
2023-03-08T04:11:44.309Z,6.72
2023-03-08T04:14:11.795Z,6.70
2023-03-08T04:16:39.484Z,5.95
2023-03-08T04:19:07.803Z,6.43
2023-03-08T04:21:34.833Z,6.99
2023-03-08T04:24:01.808Z,6.14
2023-03-08T04:26:28.971Z,6.46
2023-03-08T04:28:55.812Z,6.76
2023-03-08T04:31:25.334Z,6.74
2023-03-08T04:33:52.420Z,7.03
2023-03-08T04:36:21.312Z,7.04
2023-03-08T04:38:49.344Z,7.00
2023-03-08T04:41:18.359Z,7.10
2023-03-08T04:43:46.303Z,6.78
2023-03-08T04:46:13.326Z,7.19
2023-03-08T04:48:40.301Z,7.10
2023-03-08T04:51:07.466Z,6.85
2023-03-08T04:53:35.191Z,6.63
2023-03-08T04:56:02.334Z,6.92
2023-03-08T04:58:30.249Z,6.24
2023-03-08T05:00:57.344Z,6.61
2023-03-08T05:03:25.051Z,7.04
2023-03-08T05:05:52.847Z,7.18
2023-03-08T05:08:19.553Z,5.95
2023-03-08T05:10:50.461Z,6.27
2023-03-08T05:13:17.700Z,6.17
2023-03-08T05:15:44.484Z,6.70
2023-03-08T05:18:12.375Z,6.96
2023-03-08T05:20:39.467Z,7.42
2023-03-08T05:23:06.250Z,6.58
2023-03-08T05:25:34.421Z,6.49
2023-03-08T05:28:01.439Z,6.94
2023-03-08T05:30:28.351Z,7.28
2023-03-08T05:32:54.701Z,7.23
2023-03-08T05:35:22.901Z,7.43
2023-03-08T05:37:52.694Z,7.34
2023-03-08T05:40:19.680Z,7.22
2023-03-08T05:42:46.941Z,7.33
2023-03-08T05:45:14.856Z,6.63
2023-03-08T05:47:42.490Z,7.38
2023-03-08T05:50:10.982Z,7.32
2023-03-08T05:52:38.002Z,7.60
2023-03-08T05:55:05.911Z,7.70
2023-03-08T05:57:32.949Z,7.76
2023-03-08T06:00:00.311Z,7.62
2023-03-08T06:02:30.169Z,7.56
2023-03-08T06:04:58.530Z,6.86
2023-03-08T06:07:25.893Z,6.96
2023-03-08T06:09:54.035Z,6.95
2023-03-08T06:12:31.877Z,6.87
2023-03-08T06:14:59.407Z,6.93
2023-03-08T06:17:26.311Z,7.09
2023-03-08T06:19:54.434Z,7.37
2023-03-08T06:22:21.546Z,7.40
2023-03-08T06:24:56.240Z,7.85
2023-03-08T06:27:27.800Z,7.08
2023-03-08T06:30:01.030Z,7.11
2023-03-08T06:32:28.617Z,7.30
2023-03-08T06:35:00.746Z,7.63
2023-03-08T06:37:34.684Z,7.01
2023-03-08T06:40:02.609Z,7.12
2023-03-08T06:42:40.778Z,7.70
2023-03-08T06:45:08.895Z,6.96
2023-03-08T06:47:35.664Z,7.34
2023-03-08T06:50:05.418Z,6.77
2023-03-08T06:52:37.675Z,7.11
2023-03-08T06:55:06.059Z,6.63
2023-03-08T06:57:35.054Z,7.20
2023-03-08T07:00:02.387Z,7.17
2023-03-08T07:02:31.860Z,7.60
2023-03-08T07:05:01.389Z,7.83
2023-03-08T07:07:31.446Z,7.87
2023-03-08T07:09:59.953Z,7.74
2023-03-08T07:12:28.528Z,8.03
2023-03-08T07:14:56.375Z,8.19
2023-03-08T07:17:24.414Z,7.63
2023-03-08T07:19:51.299Z,8.40
2023-03-08T07:22:20.615Z,8.20
2023-03-08T07:24:49.824Z,8.67
2023-03-08T07:27:17.720Z,8.86
2023-03-08T07:29:45.256Z,8.49
2023-03-08T07:32:13.390Z,8.47
2023-03-08T07:34:40.986Z,8.33
2023-03-08T07:37:18.149Z,7.87
2023-03-08T07:39:47.630Z,7.96
2023-03-08T07:42:15.414Z,7.07
2023-03-08T07:44:43.514Z,7.96
2023-03-08T07:47:11.319Z,7.23
2023-03-08T07:49:42.294Z,7.85
2023-03-08T07:52:10.830Z,7.61
2023-03-08T07:54:38.995Z,8.32
2023-03-08T07:57:05.584Z,8.53
2023-03-08T07:59:33.981Z,8.18
2023-03-08T08:02:02.660Z,8.05
2023-03-08T08:04:31.256Z,7.60
2023-03-08T08:06:59.559Z,7.97
2023-03-08T08:09:28.167Z,8.62
2023-03-08T08:11:56.105Z,8.93
2023-03-08T08:14:23.648Z,9.26
2023-03-08T08:16:51.065Z,8.69
2023-03-08T08:19:19.292Z,9.20
2023-03-08T08:21:47.683Z,9.09
2023-03-08T08:24:14.789Z,8.54
2023-03-08T08:26:42.106Z,8.83
2023-03-08T08:29:09.241Z,9.37
2023-03-08T08:31:37.682Z,8.67
2023-03-08T08:34:05.357Z,8.88
2023-03-08T08:36:34.649Z,8.61
2023-03-08T08:39:02.675Z,9.28
2023-03-08T08:41:30.896Z,9.45
2023-03-08T08:43:59.719Z,9.49
2023-03-08T08:46:28.614Z,8.96
2023-03-08T08:48:56.699Z,9.43
2023-03-08T08:51:24.601Z,8.86
2023-03-08T08:53:51.408Z,7.93
2023-03-08T08:56:26.554Z,8.64
2023-03-08T08:58:55.901Z,9.19
2023-03-08T09:01:26.617Z,8.04
2023-03-08T09:03:53.961Z,8.49
2023-03-08T09:06:22.926Z,8.27
2023-03-08T09:08:55.751Z,7.42
2023-03-08T09:11:23.391Z,8.71
2023-03-08T09:13:50.940Z,8.86
2023-03-08T09:16:26.291Z,8.85
2023-03-08T09:18:54.421Z,8.67
2023-03-08T09:21:21.328Z,9.81
2023-03-08T09:23:47.980Z,9.96
2023-03-08T09:26:17.716Z,9.90
2023-03-08T09:28:44.803Z,9.38
2023-03-08T09:31:15.280Z,9.46
2023-03-08T09:33:44.175Z,9.58
2023-03-08T09:36:11.155Z,9.23
2023-03-08T09:38:39.643Z,9.43
2023-03-08T09:41:13.480Z,9.76
2023-03-08T09:44:01.807Z,10.08
2023-03-08T09:46:30.754Z,10.00
2023-03-08T09:49:01.061Z,9.44
2023-03-08T09:51:32.702Z,9.51
2023-03-08T09:54:03.442Z,9.52
2023-03-08T09:56:50.483Z,9.17
2023-03-08T09:59:21.477Z,9.08
2023-03-08T10:02:17.638Z,9.61
2023-03-08T10:05:12.674Z,9.76
2023-03-08T10:07:45.940Z,9.91
2023-03-08T10:10:24.158Z,9.61
2023-03-08T10:13:04.884Z,10.06
2023-03-08T10:15:34.386Z,10.39
2023-03-08T10:18:05.884Z,9.87
2023-03-08T10:20:35.392Z,9.96
2023-03-08T10:23:07.458Z,10.08
2023-03-08T10:25:37.812Z,9.81
2023-03-08T10:28:10.456Z,10.64
2023-03-08T10:30:48.564Z,10.69
2023-03-08T10:33:17.960Z,10.54
2023-03-08T10:35:51.644Z,10.32
2023-03-08T10:38:19.548Z,9.55
2023-03-08T10:40:47.728Z,9.95
2023-03-08T10:43:20.809Z,10.39
2023-03-08T10:46:00.351Z,10.37
2023-03-08T10:48:28.798Z,10.12
2023-03-08T10:51:01.463Z,10.09
2023-03-08T10:53:30.357Z,9.63
2023-03-08T10:55:59.127Z,10.16
2023-03-08T10:58:32.755Z,10.34
2023-03-08T11:01:05.473Z,10.29
2023-03-08T11:03:33.177Z,10.11
2023-03-08T11:06:26.705Z,9.96
2023-03-08T11:08:58.509Z,9.94
2023-03-08T11:11:25.911Z,10.45
2023-03-08T11:13:53.762Z,10.87
2023-03-08T11:16:35.460Z,10.97
2023-03-08T11:19:22.745Z,10.96
2023-03-08T11:21:56.067Z,10.90
2023-03-08T11:24:35.816Z,10.98
2023-03-08T11:27:12.307Z,11.04
2023-03-08T11:29:40.040Z,11.48
2023-03-08T11:32:17.221Z,11.85
2023-03-08T11:34:58.144Z,11.15
2023-03-08T11:37:31.535Z,11.23
2023-03-08T11:40:13.945Z,11.28
2023-03-08T11:43:13.536Z,11.27
2023-03-08T11:46:02.658Z,11.53
2023-03-08T11:48:37.904Z,11.57
2023-03-08T11:51:15.345Z,11.46
2023-03-08T11:54:00.917Z,12.02
2023-03-08T11:56:51.501Z,10.60
2023-03-08T11:59:25.453Z,11.76
2023-03-08T12:02:08.673Z,12.02
2023-03-08T12:04:43.598Z,12.57
2023-03-08T12:07:16.559Z,13.01
2023-03-08T12:09:51.213Z,13.41
2023-03-08T12:12:22.322Z,12.76
2023-03-08T12:14:50.705Z,12.59
2023-03-08T12:17:25.156Z,10.82
2023-03-08T12:19:53.412Z,12.55
2023-03-08T12:22:35.733Z,12.62
2023-03-08T12:25:17.542Z,13.06
2023-03-08T12:27:51.674Z,13.67
2023-03-08T12:30:24.837Z,13.30
2023-03-08T12:32:58.734Z,13.34
2023-03-08T12:35:29.993Z,11.94
2023-03-08T12:37:58.727Z,12.82
2023-03-08T12:40:31.000Z,12.92
2023-03-08T12:43:06.587Z,12.68
2023-03-08T12:45:33.777Z,13.44
2023-03-08T12:48:05.551Z,13.18
2023-03-08T12:50:43.696Z,13.28
2023-03-08T12:53:30.379Z,13.04
2023-03-08T12:56:14.042Z,13.60
2023-03-08T12:58:48.637Z,13.12
2023-03-08T13:01:36.173Z,13.00
2023-03-08T13:04:04.849Z,13.43
2023-03-08T13:06:50.768Z,12.82
2023-03-08T13:09:28.271Z,11.57
2023-03-08T13:12:13.903Z,11.05
2023-03-08T13:14:46.718Z,11.33
2023-03-08T13:17:39.429Z,11.22
2023-03-08T13:20:29.320Z,10.58
2023-03-08T13:23:04.409Z,12.14
2023-03-08T13:25:51.318Z,12.55
2023-03-08T13:28:19.831Z,12.82
2023-03-08T13:30:52.443Z,13.04
2023-03-08T13:33:26.310Z,12.68
2023-03-08T13:35:56.222Z,11.98
2023-03-08T13:38:25.913Z,12.94
2023-03-08T13:40:54.556Z,12.56
2023-03-08T13:43:23.394Z,12.59
2023-03-08T13:45:51.725Z,11.99
2023-03-08T13:48:19.567Z,12.36
2023-03-08T13:50:50.702Z,12.41
2023-03-08T13:53:20.320Z,12.58
2023-03-08T13:55:49.102Z,12.66
2023-03-08T13:58:38.424Z,12.81
2023-03-08T14:01:11.710Z,12.50
2023-03-08T14:03:38.706Z,12.78
2023-03-08T14:06:17.013Z,13.11
2023-03-08T14:08:45.673Z,13.12
2023-03-08T14:11:17.329Z,12.60
2023-03-08T14:13:47.521Z,12.11
2023-03-08T14:16:25.788Z,12.49
2023-03-08T14:18:52.594Z,12.46
2023-03-08T14:21:23.822Z,12.54
2023-03-08T14:23:52.368Z,12.66
2023-03-08T14:26:25.218Z,12.52
2023-03-08T14:29:02.280Z,12.56
2023-03-08T14:31:29.872Z,12.53
2023-03-08T14:34:01.194Z,11.95
2023-03-08T14:36:30.657Z,11.55
2023-03-08T14:39:00.312Z,11.88
2023-03-08T14:41:32.601Z,12.22
2023-03-08T14:44:00.426Z,12.50
2023-03-08T14:46:28.391Z,12.90
2023-03-08T14:49:03.388Z,12.05
2023-03-08T14:51:36.753Z,11.97
2023-03-08T14:54:06.118Z,11.83
2023-03-08T14:56:34.579Z,10.97
2023-03-08T14:59:03.708Z,11.33
2023-03-08T15:01:31.961Z,11.81
2023-03-08T15:03:59.857Z,11.81
2023-03-08T15:06:32.419Z,11.71
2023-03-08T15:09:00.372Z,11.77
2023-03-08T15:11:31.686Z,11.65
2023-03-08T15:14:00.757Z,11.79
2023-03-08T15:16:27.633Z,10.84
2023-03-08T15:18:54.408Z,11.00
2023-03-08T15:21:25.522Z,10.92
2023-03-08T15:23:52.718Z,11.13
2023-03-08T15:26:23.380Z,10.80
2023-03-08T15:28:50.860Z,10.77
2023-03-08T15:31:19.171Z,11.09
2023-03-08T15:33:46.406Z,10.96
2023-03-08T15:36:14.681Z,10.56
2023-03-08T15:38:41.882Z,10.89
2023-03-08T15:41:12.405Z,10.69
2023-03-08T15:43:41.228Z,10.96
2023-03-08T15:46:13.244Z,10.62
2023-03-08T15:48:39.976Z,11.04
2023-03-08T15:51:07.317Z,11.14
2023-03-08T15:53:36.045Z,10.85
2023-03-08T15:56:03.350Z,10.42
2023-03-08T15:58:31.605Z,10.85
2023-03-08T16:00:59.222Z,10.94
2023-03-08T16:03:30.832Z,10.57
2023-03-08T16:05:58.652Z,10.55
2023-03-08T16:08:27.389Z,11.03
2023-03-08T16:10:54.002Z,10.95
2023-03-08T16:13:22.085Z,11.19
2023-03-08T16:15:49.623Z,11.02
2023-03-08T16:18:17.096Z,10.89
2023-03-08T16:20:46.260Z,10.56
2023-03-08T16:23:15.412Z,10.86
2023-03-08T16:25:43.617Z,10.99
2023-03-08T16:28:10.725Z,11.03
2023-03-08T16:30:40.311Z,10.76
2023-03-08T16:33:08.564Z,10.84
2023-03-08T16:35:36.011Z,10.88
2023-03-08T16:38:02.935Z,10.48
2023-03-08T16:40:31.507Z,10.48
2023-03-08T16:42:58.314Z,10.11
2023-03-08T16:45:25.412Z,10.78
2023-03-08T16:47:52.635Z,10.65
2023-03-08T16:50:19.960Z,10.19
2023-03-08T16:52:47.389Z,10.20
2023-03-08T16:55:13.964Z,9.03
2023-03-08T16:57:41.887Z,9.50
2023-03-08T17:00:12.815Z,9.18
2023-03-08T17:02:40.554Z,9.30
2023-03-08T17:05:07.888Z,8.90
2023-03-08T17:07:34.781Z,9.23
2023-03-08T17:10:01.885Z,8.95
2023-03-08T17:12:28.681Z,9.48
2023-03-08T17:14:57.002Z,9.33
2023-03-08T17:17:23.943Z,9.02
2023-03-08T17:19:55.157Z,9.06
2023-03-08T17:22:22.157Z,9.20
2023-03-08T17:24:48.945Z,9.17
2023-03-08T17:27:15.942Z,8.63
2023-03-08T17:29:42.679Z,8.87
2023-03-08T17:32:10.033Z,8.98
2023-03-08T17:34:37.530Z,9.22
2023-03-08T17:37:04.446Z,8.57
2023-03-08T17:39:31.047Z,9.13
2023-03-08T17:41:57.901Z,9.09
2023-03-08T17:44:24.732Z,9.10
2023-03-08T17:46:51.462Z,9.18
2023-03-08T17:49:23.420Z,9.23
2023-03-08T17:51:50.033Z,8.83
2023-03-08T17:54:16.714Z,8.94
2023-03-08T17:56:43.654Z,8.75
2023-03-08T17:59:13.581Z,8.28
2023-03-08T18:01:40.829Z,8.78
2023-03-08T18:04:08.041Z,8.71
2023-03-08T18:06:35.564Z,8.78
2023-03-08T18:09:05.055Z,8.81
2023-03-08T18:11:37.309Z,8.81
2023-03-08T18:14:08.504Z,9.00
2023-03-08T18:16:35.361Z,8.79
2023-03-08T18:19:03.158Z,8.91
2023-03-08T18:21:31.028Z,8.81
2023-03-08T18:23:58.118Z,8.91
2023-03-08T18:26:24.685Z,8.66
2023-03-08T18:28:51.886Z,8.41
2023-03-08T18:31:23.119Z,8.71
2023-03-08T18:33:50.133Z,8.63
2023-03-08T18:36:17.860Z,8.29
2023-03-08T18:38:44.693Z,8.02
2023-03-08T18:41:20.702Z,7.86
2023-03-08T18:43:47.469Z,7.84
2023-03-08T18:46:14.528Z,7.85
2023-03-08T18:48:42.016Z,7.85
2023-03-08T18:51:10.266Z,7.90
2023-03-08T18:53:38.153Z,8.31
2023-03-08T18:56:05.686Z,8.16
2023-03-08T18:58:32.654Z,7.87
2023-03-08T19:01:00.615Z,8.04
2023-03-08T19:03:27.656Z,7.97
2023-03-08T19:06:01.069Z,7.17
2023-03-08T19:08:28.941Z,7.97
2023-03-08T19:10:55.544Z,7.96
2023-03-08T19:13:24.982Z,7.55
2023-03-08T19:15:51.999Z,7.69
2023-03-08T19:18:19.767Z,7.98
2023-03-08T19:20:47.207Z,8.14
2023-03-08T19:23:14.562Z,7.50
2023-03-08T19:26:13.799Z,7.47
2023-03-08T19:28:41.589Z,7.15
2023-03-08T19:31:15.486Z,7.72
2023-03-08T19:33:47.499Z,8.18
2023-03-08T19:36:14.416Z,7.47
2023-03-08T19:38:41.140Z,7.03
2023-03-08T19:41:13.454Z,7.11
2023-03-08T19:43:40.620Z,7.44
2023-03-08T19:46:09.900Z,7.17
2023-03-08T19:48:37.129Z,7.75
2023-03-08T19:51:03.845Z,7.55
2023-03-08T19:53:31.089Z,7.93
2023-03-08T19:55:57.674Z,7.92
2023-03-08T19:58:24.971Z,7.89
2023-03-08T20:01:01.181Z,8.16
2023-03-08T20:03:28.967Z,7.66
2023-03-08T20:05:55.721Z,7.58
2023-03-08T20:08:23.381Z,7.95
2023-03-08T20:10:51.201Z,8.18
2023-03-08T20:13:18.075Z,7.44
2023-03-08T20:15:45.122Z,7.82
2023-03-08T20:18:11.774Z,7.54
2023-03-08T20:20:38.763Z,7.79
2023-03-08T20:23:05.820Z,7.96
2023-03-08T20:25:34.721Z,7.86
2023-03-08T20:28:01.581Z,7.27
2023-03-08T20:30:29.198Z,7.50
2023-03-08T20:32:56.036Z,7.63
2023-03-08T20:35:24.084Z,7.09
2023-03-08T20:37:51.077Z,7.32
2023-03-08T20:40:21.469Z,7.39
2023-03-08T20:42:48.168Z,7.66
2023-03-08T20:45:15.604Z,7.97
2023-03-08T20:47:42.439Z,7.64
2023-03-08T20:50:09.787Z,8.01
2023-03-08T20:52:37.002Z,7.74
2023-03-08T20:55:04.280Z,7.90
2023-03-08T20:57:31.255Z,8.06
2023-03-08T20:59:58.097Z,8.00
2023-03-08T21:02:25.148Z,7.56
2023-03-08T21:04:51.914Z,7.75
2023-03-08T21:07:18.853Z,7.89
2023-03-08T21:09:45.982Z,7.17
2023-03-08T21:12:13.019Z,7.17
2023-03-08T21:14:40.083Z,7.73
2023-03-08T21:17:06.882Z,7.89
2023-03-08T21:19:33.794Z,8.13
2023-03-08T21:22:00.753Z,8.05
2023-03-08T21:24:27.146Z,8.01
2023-03-08T21:26:53.943Z,8.05
2023-03-08T21:29:21.734Z,7.94
2023-03-08T21:31:53.008Z,8.00
2023-03-08T21:34:20.109Z,8.03
2023-03-08T21:36:47.069Z,8.09
2023-03-08T21:39:14.401Z,8.08
2023-03-08T21:41:43.408Z,7.92
2023-03-08T21:44:13.300Z,7.75
2023-03-08T21:46:40.765Z,7.43
2023-03-08T21:49:07.998Z,7.44
2023-03-08T21:51:35.865Z,7.65
2023-03-08T21:54:02.824Z,7.88
2023-03-08T21:56:29.593Z,7.90
2023-03-08T21:58:56.612Z,8.00
2023-03-08T22:01:28.674Z,8.02
2023-03-08T22:03:56.323Z,7.78
2023-03-08T22:06:23.667Z,7.42
2023-03-08T22:08:50.770Z,6.78
2023-03-08T22:11:19.184Z,7.27
2023-03-08T22:13:50.686Z,7.73
2023-03-08T22:16:18.127Z,7.58
2023-03-08T22:18:45.165Z,7.70
2023-03-08T22:21:12.209Z,7.48
2023-03-08T22:23:40.235Z,7.64
2023-03-08T22:26:08.422Z,7.77
2023-03-08T22:28:36.359Z,7.28
2023-03-08T22:31:09.212Z,7.47
2023-03-08T22:33:36.066Z,7.23
2023-03-08T22:36:07.217Z,7.39
2023-03-08T22:38:34.249Z,7.30
2023-03-08T22:41:00.907Z,7.29
2023-03-08T22:43:27.933Z,7.68
2023-03-08T22:45:56.135Z,7.36
2023-03-08T22:48:22.659Z,7.86
2023-03-08T22:50:56.301Z,7.90
2023-03-08T22:53:28.254Z,7.91
2023-03-08T22:55:59.335Z,8.04
2023-03-08T22:58:27.792Z,8.12
2023-03-08T23:00:56.068Z,7.71
2023-03-08T23:03:22.733Z,6.78
2023-03-08T23:05:49.187Z,7.58
2023-03-08T23:08:16.263Z,7.39
2023-03-08T23:10:43.293Z,7.57
2023-03-08T23:13:14.349Z,7.71
2023-03-08T23:15:43.508Z,7.73
2023-03-08T23:18:10.299Z,7.65
2023-03-08T23:20:37.154Z,7.77
2023-03-08T23:23:04.214Z,7.47
2023-03-08T23:25:30.987Z,7.59
2023-03-08T23:27:59.153Z,7.54
2023-03-08T23:30:25.878Z,7.77
2023-03-08T23:32:54.151Z,7.68
2023-03-08T23:35:20.759Z,7.51
2023-03-08T23:37:47.356Z,7.27
2023-03-08T23:40:14.245Z,7.52
2023-03-08T23:42:41.281Z,6.60
2023-03-08T23:45:08.243Z,7.23
2023-03-08T23:47:35.352Z,7.10
2023-03-08T23:50:02.133Z,7.42
2023-03-08T23:52:28.978Z,7.47
2023-03-08T23:54:55.685Z,7.49
2023-03-08T23:57:22.366Z,7.03
2023-03-08T23:59:49.124Z,7.15
